sensor_id;sensor_type;location;lat;lon;timestamp;temperature;humidity
24412;DHT22;12544;46.760;15.942;2023-09-18T00:00:25;17.50;99.90
24412;DHT22;12544;46.760;15.942;2023-09-18T00:02:50;17.40;99.90
24412;DHT22;12544;46.760;15.942;2023-09-18T00:05:16;17.40;99.90
24412;DHT22;12544;46.760;15.942;2023-09-18T00:07:42;17.30;99.90
24412;DHT22;12544;46.760;15.942;2023-09-18T00:10:12;17.30;99.90
24412;DHT22;12544;46.760;15.942;2023-09-18T00:16:00;17.40;99.90
24412;DHT22;12544;46.760;15.942;2023-09-18T00:18:26;17.30;99.90
24412;DHT22;12544;46.760;15.942;2023-09-18T00:20:52;17.40;99.90
24412;DHT22;12544;46.760;15.942;2023-09-18T00:23:17;17.40;99.90
24412;DHT22;12544;46.760;15.942;2023-09-18T00:25:43;17.40;99.90
24412;DHT22;12544;46.760;15.942;2023-09-18T00:28:09;17.30;99.90
24412;DHT22;12544;46.760;15.942;2023-09-18T00:30:37;17.30;99.90
24412;DHT22;12544;46.760;15.942;2023-09-18T00:33:03;17.20;99.90
24412;DHT22;12544;46.760;15.942;2023-09-18T00:35:29;17.20;99.90
24412;DHT22;12544;46.760;15.942;2023-09-18T00:37:54;17.20;99.90
24412;DHT22;12544;46.760;15.942;2023-09-18T00:40:21;17.20;99.90
24412;DHT22;12544;46.760;15.942;2023-09-18T00:42:46;17.20;99.90
24412;DHT22;12544;46.760;15.942;2023-09-18T00:48:34;17.10;99.90
24412;DHT22;12544;46.760;15.942;2023-09-18T00:50:59;17.10;99.90
24412;DHT22;12544;46.760;15.942;2023-09-18T00:53:26;17.00;99.90
24412;DHT22;12544;46.760;15.942;2023-09-18T00:55:54;17.00;99.90
24412;DHT22;12544;46.760;15.942;2023-09-18T00:58:21;17.00;99.90
24412;DHT22;12544;46.760;15.942;2023-09-18T01:00:47;17.00;99.90
24412;DHT22;12544;46.760;15.942;2023-09-18T01:06:38;17.00;99.90
24412;DHT22;12544;46.760;15.942;2023-09-18T01:09:04;17.00;99.90
24412;DHT22;12544;46.760;15.942;2023-09-18T01:11:50;16.90;99.90
24412;DHT22;12544;46.760;15.942;2023-09-18T01:14:42;16.70;99.90
24412;DHT22;12544;46.760;15.942;2023-09-18T01:17:10;16.60;99.90
24412;DHT22;12544;46.760;15.942;2023-09-18T01:19:44;16.60;99.90
24412;DHT22;12544;46.760;15.942;2023-09-18T01:22:18;16.60;99.90
24412;DHT22;12544;46.760;15.942;2023-09-18T01:24:45;16.50;99.90
24412;DHT22;12544;46.760;15.942;2023-09-18T01:30:34;16.60;99.90
24412;DHT22;12544;46.760;15.942;2023-09-18T01:33:00;16.70;99.90
24412;DHT22;12544;46.760;15.942;2023-09-18T01:35:26;16.70;99.90
24412;DHT22;12544;46.760;15.942;2023-09-18T01:37:58;16.80;99.90
24412;DHT22;12544;46.760;15.942;2023-09-18T01:40:25;16.80;99.90
24412;DHT22;12544;46.760;15.942;2023-09-18T01:42:52;16.90;99.90
24412;DHT22;12544;46.760;15.942;2023-09-18T01:45:18;16.90;99.90
24412;DHT22;12544;46.760;15.942;2023-09-18T01:47:43;16.90;99.90
24412;DHT22;12544;46.760;15.942;2023-09-18T01:50:10;17.00;99.90
24412;DHT22;12544;46.760;15.942;2023-09-18T01:52:36;17.00;99.90
24412;DHT22;12544;46.760;15.942;2023-09-18T01:55:02;17.00;99.90
24412;DHT22;12544;46.760;15.942;2023-09-18T01:57:29;16.90;99.90
24412;DHT22;12544;46.760;15.942;2023-09-18T01:59:55;16.80;99.90
24412;DHT22;12544;46.760;15.942;2023-09-18T02:02:21;16.70;99.90
24412;DHT22;12544;46.760;15.942;2023-09-18T02:04:46;16.80;99.90
24412;DHT22;12544;46.760;15.942;2023-09-18T02:07:12;16.70;99.90
24412;DHT22;12544;46.760;15.942;2023-09-18T02:09:39;16.80;99.90
24412;DHT22;12544;46.760;15.942;2023-09-18T02:12:04;16.90;99.90
24412;DHT22;12544;46.760;15.942;2023-09-18T02:14:31;16.90;99.90
24412;DHT22;12544;46.760;15.942;2023-09-18T02:16:57;17.00;99.90
24412;DHT22;12544;46.760;15.942;2023-09-18T02:19:23;17.00;99.90
24412;DHT22;12544;46.760;15.942;2023-09-18T02:21:48;17.00;99.90
24412;DHT22;12544;46.760;15.942;2023-09-18T02:24:14;17.10;99.90
24412;DHT22;12544;46.760;15.942;2023-09-18T02:26:40;17.10;99.90
24412;DHT22;12544;46.760;15.942;2023-09-18T02:29:07;17.10;99.90
24412;DHT22;12544;46.760;15.942;2023-09-18T02:31:34;17.10;99.90
24412;DHT22;12544;46.760;15.942;2023-09-18T02:34:00;17.00;99.90
24412;DHT22;12544;46.760;15.942;2023-09-18T02:36:25;16.90;99.90
24412;DHT22;12544;46.760;15.942;2023-09-18T02:38:51;16.90;99.90
24412;DHT22;12544;46.760;15.942;2023-09-18T02:41:17;16.90;99.90
24412;DHT22;12544;46.760;15.942;2023-09-18T02:43:42;16.80;99.90
24412;DHT22;12544;46.760;15.942;2023-09-18T02:46:08;16.80;99.90
24412;DHT22;12544;46.760;15.942;2023-09-18T02:48:34;16.80;99.90
24412;DHT22;12544;46.760;15.942;2023-09-18T02:51:01;16.70;99.90
24412;DHT22;12544;46.760;15.942;2023-09-18T02:53:26;16.70;99.90
24412;DHT22;12544;46.760;15.942;2023-09-18T02:55:56;16.70;99.90
24412;DHT22;12544;46.760;15.942;2023-09-18T02:58:22;16.70;99.90
24412;DHT22;12544;46.760;15.942;2023-09-18T03:00:49;16.70;99.90
24412;DHT22;12544;46.760;15.942;2023-09-18T03:03:16;16.70;99.90
24412;DHT22;12544;46.760;15.942;2023-09-18T03:05:43;16.60;99.90
24412;DHT22;12544;46.760;15.942;2023-09-18T03:08:09;16.60;99.90
24412;DHT22;12544;46.760;15.942;2023-09-18T03:10:36;16.60;99.90
24412;DHT22;12544;46.760;15.942;2023-09-18T03:13:03;16.50;99.90
24412;DHT22;12544;46.760;15.942;2023-09-18T03:15:30;16.60;99.90
24412;DHT22;12544;46.760;15.942;2023-09-18T03:17:57;16.50;99.90
24412;DHT22;12544;46.760;15.942;2023-09-18T03:20:27;16.40;99.90
24412;DHT22;12544;46.760;15.942;2023-09-18T03:22:55;16.20;99.90
24412;DHT22;12544;46.760;15.942;2023-09-18T03:25:21;16.10;99.90
24412;DHT22;12544;46.760;15.942;2023-09-18T03:27:47;16.00;99.90
24412;DHT22;12544;46.760;15.942;2023-09-18T03:30:13;15.90;99.90
24412;DHT22;12544;46.760;15.942;2023-09-18T03:32:41;15.70;99.90
24412;DHT22;12544;46.760;15.942;2023-09-18T03:35:08;15.70;99.90
24412;DHT22;12544;46.760;15.942;2023-09-18T03:37:41;15.70;99.90
24412;DHT22;12544;46.760;15.942;2023-09-18T03:40:07;15.70;99.90
24412;DHT22;12544;46.760;15.942;2023-09-18T03:46:05;15.70;99.90
24412;DHT22;12544;46.760;15.942;2023-09-18T03:48:31;15.70;99.90
24412;DHT22;12544;46.760;15.942;2023-09-18T03:51:05;15.70;99.90
24412;DHT22;12544;46.760;15.942;2023-09-18T03:53:32;15.80;99.90
24412;DHT22;12544;46.760;15.942;2023-09-18T03:55:58;15.90;99.90
24412;DHT22;12544;46.760;15.942;2023-09-18T03:58:24;15.80;99.90
24412;DHT22;12544;46.760;15.942;2023-09-18T04:00:50;15.70;99.90
24412;DHT22;12544;46.760;15.942;2023-09-18T04:03:16;15.70;99.90
24412;DHT22;12544;46.760;15.942;2023-09-18T04:05:42;15.70;99.90
24412;DHT22;12544;46.760;15.942;2023-09-18T04:08:08;15.60;99.90
24412;DHT22;12544;46.760;15.942;2023-09-18T04:13:56;15.60;99.90
24412;DHT22;12544;46.760;15.942;2023-09-18T04:16:22;15.60;99.90
24412;DHT22;12544;46.760;15.942;2023-09-18T04:18:48;15.60;99.90
24412;DHT22;12544;46.760;15.942;2023-09-18T04:21:14;15.60;99.90
24412;DHT22;12544;46.760;15.942;2023-09-18T04:23:39;15.60;99.90
24412;DHT22;12544;46.760;15.942;2023-09-18T04:26:05;15.70;99.90
24412;DHT22;12544;46.760;15.942;2023-09-18T04:28:31;15.70;99.90
24412;DHT22;12544;46.760;15.942;2023-09-18T04:30:56;15.70;99.90
24412;DHT22;12544;46.760;15.942;2023-09-18T04:33:22;15.70;99.90
24412;DHT22;12544;46.760;15.942;2023-09-18T04:38:51;15.70;99.90
24412;DHT22;12544;46.760;15.942;2023-09-18T04:41:17;15.70;99.90
24412;DHT22;12544;46.760;15.942;2023-09-18T04:43:42;15.70;99.90
24412;DHT22;12544;46.760;15.942;2023-09-18T04:46:08;15.60;99.90
24412;DHT22;12544;46.760;15.942;2023-09-18T04:48:34;15.50;99.90
24412;DHT22;12544;46.760;15.942;2023-09-18T04:51:00;15.50;99.90
24412;DHT22;12544;46.760;15.942;2023-09-18T04:53:29;15.40;99.90
24412;DHT22;12544;46.760;15.942;2023-09-18T04:55:55;15.40;99.90
24412;DHT22;12544;46.760;15.942;2023-09-18T04:58:21;15.40;99.90
24412;DHT22;12544;46.760;15.942;2023-09-18T05:00:53;15.50;99.90
24412;DHT22;12544;46.760;15.942;2023-09-18T05:03:18;15.60;99.90
24412;DHT22;12544;46.760;15.942;2023-09-18T05:05:44;15.60;99.90
24412;DHT22;12544;46.760;15.942;2023-09-18T05:08:10;15.60;99.90
24412;DHT22;12544;46.760;15.942;2023-09-18T05:10:38;15.50;99.90
24412;DHT22;12544;46.760;15.942;2023-09-18T05:13:04;15.50;99.90
24412;DHT22;12544;46.760;15.942;2023-09-18T05:15:30;15.60;99.90
24412;DHT22;12544;46.760;15.942;2023-09-18T05:17:57;15.70;99.90
24412;DHT22;12544;46.760;15.942;2023-09-18T05:20:28;15.80;99.90
24412;DHT22;12544;46.760;15.942;2023-09-18T05:22:55;15.90;99.90
24412;DHT22;12544;46.760;15.942;2023-09-18T05:25:21;15.90;99.90
24412;DHT22;12544;46.760;15.942;2023-09-18T05:27:48;15.90;99.90
24412;DHT22;12544;46.760;15.942;2023-09-18T05:30:17;16.00;99.90
24412;DHT22;12544;46.760;15.942;2023-09-18T05:32:43;16.10;99.90
24412;DHT22;12544;46.760;15.942;2023-09-18T05:35:11;16.20;99.90
24412;DHT22;12544;46.760;15.942;2023-09-18T05:37:38;16.20;99.90
24412;DHT22;12544;46.760;15.942;2023-09-18T05:40:07;16.30;99.90
24412;DHT22;12544;46.760;15.942;2023-09-18T05:42:46;16.30;99.90
24412;DHT22;12544;46.760;15.942;2023-09-18T05:45:13;16.40;99.90
24412;DHT22;12544;46.760;15.942;2023-09-18T05:47:39;16.40;99.90
24412;DHT22;12544;46.760;15.942;2023-09-18T05:50:06;16.50;99.90
24412;DHT22;12544;46.760;15.942;2023-09-18T05:52:33;16.50;99.90
24412;DHT22;12544;46.760;15.942;2023-09-18T05:55:00;16.60;99.90
24412;DHT22;12544;46.760;15.942;2023-09-18T05:57:25;16.60;99.90
24412;DHT22;12544;46.760;15.942;2023-09-18T05:59:55;16.60;99.90
24412;DHT22;12544;46.760;15.942;2023-09-18T06:02:21;16.70;99.90
24412;DHT22;12544;46.760;15.942;2023-09-18T06:04:48;16.70;99.90
24412;DHT22;12544;46.760;15.942;2023-09-18T06:07:14;16.80;99.90
24412;DHT22;12544;46.760;15.942;2023-09-18T06:09:40;16.80;99.90
24412;DHT22;12544;46.760;15.942;2023-09-18T06:12:06;16.80;99.90
24412;DHT22;12544;46.760;15.942;2023-09-18T06:14:32;16.90;99.90
24412;DHT22;12544;46.760;15.942;2023-09-18T06:17:00;17.00;99.90
24412;DHT22;12544;46.760;15.942;2023-09-18T06:19:26;17.00;99.90
24412;DHT22;12544;46.760;15.942;2023-09-18T06:21:51;17.10;99.90
24412;DHT22;12544;46.760;15.942;2023-09-18T06:24:17;17.20;99.90
24412;DHT22;12544;46.760;15.942;2023-09-18T06:26:43;17.20;99.90
24412;DHT22;12544;46.760;15.942;2023-09-18T06:29:08;17.20;99.90
24412;DHT22;12544;46.760;15.942;2023-09-18T06:31:35;17.20;99.90
24412;DHT22;12544;46.760;15.942;2023-09-18T06:34:00;17.30;99.90
24412;DHT22;12544;46.760;15.942;2023-09-18T06:36:26;17.40;99.90
24412;DHT22;12544;46.760;15.942;2023-09-18T06:38:52;17.50;99.90
24412;DHT22;12544;46.760;15.942;2023-09-18T06:41:18;17.60;99.90
24412;DHT22;12544;46.760;15.942;2023-09-18T06:43:44;17.70;99.90
24412;DHT22;12544;46.760;15.942;2023-09-18T06:46:09;17.70;99.90
24412;DHT22;12544;46.760;15.942;2023-09-18T06:48:35;17.80;99.90
24412;DHT22;12544;46.760;15.942;2023-09-18T06:51:01;17.80;99.90
24412;DHT22;12544;46.760;15.942;2023-09-18T06:53:27;17.90;99.90
24412;DHT22;12544;46.760;15.942;2023-09-18T06:55:53;17.90;99.90
24412;DHT22;12544;46.760;15.942;2023-09-18T06:58:19;18.00;99.90
24412;DHT22;12544;46.760;15.942;2023-09-18T07:00:44;18.10;99.90
24412;DHT22;12544;46.760;15.942;2023-09-18T07:03:10;18.30;99.90
24412;DHT22;12544;46.760;15.942;2023-09-18T07:05:37;18.40;99.90
24412;DHT22;12544;46.760;15.942;2023-09-18T07:08:03;18.50;99.90
24412;DHT22;12544;46.760;15.942;2023-09-18T07:10:31;18.60;99.90
24412;DHT22;12544;46.760;15.942;2023-09-18T07:12:58;18.60;99.90
24412;DHT22;12544;46.760;15.942;2023-09-18T07:15:23;18.70;99.90
24412;DHT22;12544;46.760;15.942;2023-09-18T07:17:49;18.90;99.90
24412;DHT22;12544;46.760;15.942;2023-09-18T07:20:15;19.00;99.90
24412;DHT22;12544;46.760;15.942;2023-09-18T07:22:45;19.10;99.90
24412;DHT22;12544;46.760;15.942;2023-09-18T07:25:10;19.20;99.90
24412;DHT22;12544;46.760;15.942;2023-09-18T07:27:36;19.30;99.90
24412;DHT22;12544;46.760;15.942;2023-09-18T07:30:04;19.40;99.90
24412;DHT22;12544;46.760;15.942;2023-09-18T07:32:30;19.40;99.90
24412;DHT22;12544;46.760;15.942;2023-09-18T07:34:56;19.40;99.90
24412;DHT22;12544;46.760;15.942;2023-09-18T07:37:21;19.40;99.90
24412;DHT22;12544;46.760;15.942;2023-09-18T07:39:49;19.50;99.90
24412;DHT22;12544;46.760;15.942;2023-09-18T07:42:14;19.60;99.90
24412;DHT22;12544;46.760;15.942;2023-09-18T07:44:41;19.80;99.90
24412;DHT22;12544;46.760;15.942;2023-09-18T07:47:06;19.80;99.90
24412;DHT22;12544;46.760;15.942;2023-09-18T07:49:33;19.90;99.90
24412;DHT22;12544;46.760;15.942;2023-09-18T07:51:59;20.00;99.90
24412;DHT22;12544;46.760;15.942;2023-09-18T07:54:24;20.00;99.90
24412;DHT22;12544;46.760;15.942;2023-09-18T07:56:50;20.00;99.90
24412;DHT22;12544;46.760;15.942;2023-09-18T07:59:16;20.00;99.90
24412;DHT22;12544;46.760;15.942;2023-09-18T08:01:41;20.00;99.90
24412;DHT22;12544;46.760;15.942;2023-09-18T08:04:07;20.00;99.90
24412;DHT22;12544;46.760;15.942;2023-09-18T08:06:33;20.00;99.90
24412;DHT22;12544;46.760;15.942;2023-09-18T08:08:58;20.00;99.90
24412;DHT22;12544;46.760;15.942;2023-09-18T08:11:24;20.00;99.90
24412;DHT22;12544;46.760;15.942;2023-09-18T08:13:49;20.10;99.90
24412;DHT22;12544;46.760;15.942;2023-09-18T08:16:15;20.20;99.90
24412;DHT22;12544;46.760;15.942;2023-09-18T08:18:43;20.40;99.90
24412;DHT22;12544;46.760;15.942;2023-09-18T08:21:09;20.50;99.90
24412;DHT22;12544;46.760;15.942;2023-09-18T08:23:35;20.70;99.90
24412;DHT22;12544;46.760;15.942;2023-09-18T08:26:02;20.70;99.90
24412;DHT22;12544;46.760;15.942;2023-09-18T08:28:29;20.80;99.90
24412;DHT22;12544;46.760;15.942;2023-09-18T08:30:55;20.90;99.90
24412;DHT22;12544;46.760;15.942;2023-09-18T08:33:21;21.00;99.90
24412;DHT22;12544;46.760;15.942;2023-09-18T08:35:46;21.10;99.90
24412;DHT22;12544;46.760;15.942;2023-09-18T08:38:13;21.10;99.90
24412;DHT22;12544;46.760;15.942;2023-09-18T08:40:41;21.20;99.90
24412;DHT22;12544;46.760;15.942;2023-09-18T08:43:08;21.20;99.90
24412;DHT22;12544;46.760;15.942;2023-09-18T08:45:50;21.30;99.90
24412;DHT22;12544;46.760;15.942;2023-09-18T08:48:17;21.50;99.90
24412;DHT22;12544;46.760;15.942;2023-09-18T08:50:43;21.60;99.90
24412;DHT22;12544;46.760;15.942;2023-09-18T08:53:10;21.80;99.90
24412;DHT22;12544;46.760;15.942;2023-09-18T08:55:36;21.90;99.90
24412;DHT22;12544;46.760;15.942;2023-09-18T08:58:02;22.10;99.90
24412;DHT22;12544;46.760;15.942;2023-09-18T09:00:28;22.20;99.90
24412;DHT22;12544;46.760;15.942;2023-09-18T09:02:54;22.40;99.90
24412;DHT22;12544;46.760;15.942;2023-09-18T09:05:23;22.60;99.90
24412;DHT22;12544;46.760;15.942;2023-09-18T09:07:49;22.70;99.90
24412;DHT22;12544;46.760;15.942;2023-09-18T09:10:16;22.80;99.90
24412;DHT22;12544;46.760;15.942;2023-09-18T09:12:52;22.70;99.90
24412;DHT22;12544;46.760;15.942;2023-09-18T09:15:19;22.80;99.90
24412;DHT22;12544;46.760;15.942;2023-09-18T09:17:46;22.90;99.90
24412;DHT22;12544;46.760;15.942;2023-09-18T09:20:13;22.90;99.90
24412;DHT22;12544;46.760;15.942;2023-09-18T09:22:40;22.80;99.90
24412;DHT22;12544;46.760;15.942;2023-09-18T09:27:49;22.80;99.90
24412;DHT22;12544;46.760;15.942;2023-09-18T09:30:22;22.80;99.90
24412;DHT22;12544;46.760;15.942;2023-09-18T09:32:50;22.70;99.90
24412;DHT22;12544;46.760;15.942;2023-09-18T09:35:36;22.60;99.90
24412;DHT22;12544;46.760;15.942;2023-09-18T09:38:11;22.60;99.90
24412;DHT22;12544;46.760;15.942;2023-09-18T09:40:41;22.60;99.90
24412;DHT22;12544;46.760;15.942;2023-09-18T09:43:08;22.50;99.90
24412;DHT22;12544;46.760;15.942;2023-09-18T09:45:34;22.60;99.90
24412;DHT22;12544;46.760;15.942;2023-09-18T09:48:02;22.60;99.90
24412;DHT22;12544;46.760;15.942;2023-09-18T09:50:29;22.60;99.90
24412;DHT22;12544;46.760;15.942;2023-09-18T09:52:55;22.90;99.90
24412;DHT22;12544;46.760;15.942;2023-09-18T09:55:32;22.90;99.90
24412;DHT22;12544;46.760;15.942;2023-09-18T09:58:00;23.00;99.90
24412;DHT22;12544;46.760;15.942;2023-09-18T10:00:44;23.10;99.90
24412;DHT22;12544;46.760;15.942;2023-09-18T10:03:12;23.20;99.90
24412;DHT22;12544;46.760;15.942;2023-09-18T10:05:40;23.20;99.90
24412;DHT22;12544;46.760;15.942;2023-09-18T10:11:06;23.40;99.90
24412;DHT22;12544;46.760;15.942;2023-09-18T10:14:00;23.50;99.90
24412;DHT22;12544;46.760;15.942;2023-09-18T10:16:26;23.90;99.90
24412;DHT22;12544;46.760;15.942;2023-09-18T10:19:30;24.10;99.90
24412;DHT22;12544;46.760;15.942;2023-09-18T10:24:28;24.70;99.90
24412;DHT22;12544;46.760;15.942;2023-09-18T10:26:59;25.00;99.90
24412;DHT22;12544;46.760;15.942;2023-09-18T10:29:27;25.20;99.90
24412;DHT22;12544;46.760;15.942;2023-09-18T10:31:54;25.50;99.90
24412;DHT22;12544;46.760;15.942;2023-09-18T10:34:22;25.60;99.90
24412;DHT22;12544;46.760;15.942;2023-09-18T10:36:50;25.80;99.90
24412;DHT22;12544;46.760;15.942;2023-09-18T10:39:16;25.90;99.90
24412;DHT22;12544;46.760;15.942;2023-09-18T10:41:55;26.00;99.90
24412;DHT22;12544;46.760;15.942;2023-09-18T10:44:27;26.00;99.90
24412;DHT22;12544;46.760;15.942;2023-09-18T10:46:53;26.00;99.90
24412;DHT22;12544;46.760;15.942;2023-09-18T10:49:20;26.10;99.90
24412;DHT22;12544;46.760;15.942;2023-09-18T10:51:47;26.30;99.90
24412;DHT22;12544;46.760;15.942;2023-09-18T10:54:20;26.60;99.90
24412;DHT22;12544;46.760;15.942;2023-09-18T10:56:45;26.70;99.90
24412;DHT22;12544;46.760;15.942;2023-09-18T10:59:11;26.80;99.90
24412;DHT22;12544;46.760;15.942;2023-09-18T11:01:39;27.10;99.90
24412;DHT22;12544;46.760;15.942;2023-09-18T11:04:06;27.00;99.90
24412;DHT22;12544;46.760;15.942;2023-09-18T11:09:29;26.80;99.90
24412;DHT22;12544;46.760;15.942;2023-09-18T11:14:46;26.80;99.90
24412;DHT22;12544;46.760;15.942;2023-09-18T11:17:34;26.80;99.90
24412;DHT22;12544;46.760;15.942;2023-09-18T11:22:58;27.00;99.90
24412;DHT22;12544;46.760;15.942;2023-09-18T11:25:37;26.80;99.90
24412;DHT22;12544;46.760;15.942;2023-09-18T11:28:08;26.80;99.90
24412;DHT22;12544;46.760;15.942;2023-09-18T11:30:37;27.10;99.90
24412;DHT22;12544;46.760;15.942;2023-09-18T11:33:06;27.40;99.90
24412;DHT22;12544;46.760;15.942;2023-09-18T11:35:33;27.30;99.90
24412;DHT22;12544;46.760;15.942;2023-09-18T11:38:07;27.20;99.90
24412;DHT22;12544;46.760;15.942;2023-09-18T11:40:35;27.40;99.90
24412;DHT22;12544;46.760;15.942;2023-09-18T11:43:25;27.50;99.90
24412;DHT22;12544;46.760;15.942;2023-09-18T11:46:01;27.80;99.90
24412;DHT22;12544;46.760;15.942;2023-09-18T11:48:31;28.10;99.90
24412;DHT22;12544;46.760;15.942;2023-09-18T11:51:00;28.10;99.90
24412;DHT22;12544;46.760;15.942;2023-09-18T11:53:28;28.10;99.90
24412;DHT22;12544;46.760;15.942;2023-09-18T11:55:55;27.90;99.90
24412;DHT22;12544;46.760;15.942;2023-09-18T11:58:21;27.90;99.90
24412;DHT22;12544;46.760;15.942;2023-09-18T12:00:49;27.80;99.90
24412;DHT22;12544;46.760;15.942;2023-09-18T12:03:16;27.70;99.90
24412;DHT22;12544;46.760;15.942;2023-09-18T12:05:44;27.90;99.90
24412;DHT22;12544;46.760;15.942;2023-09-18T12:08:11;28.00;99.90
24412;DHT22;12544;46.760;15.942;2023-09-18T12:10:37;28.20;99.90
24412;DHT22;12544;46.760;15.942;2023-09-18T12:13:06;28.20;99.90
24412;DHT22;12544;46.760;15.942;2023-09-18T12:15:37;28.40;99.90
24412;DHT22;12544;46.760;15.942;2023-09-18T12:18:06;28.60;99.90
24412;DHT22;12544;46.760;15.942;2023-09-18T12:20:32;28.40;99.90
24412;DHT22;12544;46.760;15.942;2023-09-18T12:23:00;28.00;99.90
24412;DHT22;12544;46.760;15.942;2023-09-18T12:25:25;27.50;99.90
24412;DHT22;12544;46.760;15.942;2023-09-18T12:27:52;27.20;99.90
24412;DHT22;12544;46.760;15.942;2023-09-18T12:30:18;26.90;99.90
24412;DHT22;12544;46.760;15.942;2023-09-18T12:32:46;26.70;99.90
24412;DHT22;12544;46.760;15.942;2023-09-18T12:35:16;26.60;99.90
24412;DHT22;12544;46.760;15.942;2023-09-18T12:37:44;26.50;99.90
24412;DHT22;12544;46.760;15.942;2023-09-18T12:40:30;26.50;99.90
24412;DHT22;12544;46.760;15.942;2023-09-18T12:42:56;26.40;99.90
24412;DHT22;12544;46.760;15.942;2023-09-18T12:45:24;26.50;99.90
24412;DHT22;12544;46.760;15.942;2023-09-18T12:47:50;26.50;99.90
24412;DHT22;12544;46.760;15.942;2023-09-18T12:50:16;26.50;99.90
24412;DHT22;12544;46.760;15.942;2023-09-18T12:52:42;26.50;99.90
24412;DHT22;12544;46.760;15.942;2023-09-18T12:55:08;26.50;99.90
24412;DHT22;12544;46.760;15.942;2023-09-18T12:57:34;26.40;99.90
24412;DHT22;12544;46.760;15.942;2023-09-18T13:00:08;26.30;99.90
24412;DHT22;12544;46.760;15.942;2023-09-18T13:02:37;26.20;99.90
24412;DHT22;12544;46.760;15.942;2023-09-18T13:05:03;26.20;99.90
24412;DHT22;12544;46.760;15.942;2023-09-18T13:07:29;26.20;99.90
24412;DHT22;12544;46.760;15.942;2023-09-18T13:10:03;26.30;99.90
24412;DHT22;12544;46.760;15.942;2023-09-18T13:12:46;26.30;99.90
24412;DHT22;12544;46.760;15.942;2023-09-18T13:15:13;26.20;99.90
24412;DHT22;12544;46.760;15.942;2023-09-18T13:17:43;26.20;99.90
24412;DHT22;12544;46.760;15.942;2023-09-18T13:20:12;26.10;99.90
24412;DHT22;12544;46.760;15.942;2023-09-18T13:22:39;26.00;99.90
24412;DHT22;12544;46.760;15.942;2023-09-18T13:25:07;25.90;99.90
24412;DHT22;12544;46.760;15.942;2023-09-18T13:27:33;25.90;99.90
24412;DHT22;12544;46.760;15.942;2023-09-18T13:29:58;25.90;99.90
24412;DHT22;12544;46.760;15.942;2023-09-18T13:32:33;25.80;99.90
24412;DHT22;12544;46.760;15.942;2023-09-18T13:34:59;25.80;99.90
24412;DHT22;12544;46.760;15.942;2023-09-18T13:37:25;25.70;99.90
24412;DHT22;12544;46.760;15.942;2023-09-18T13:39:52;25.60;99.90
24412;DHT22;12544;46.760;15.942;2023-09-18T13:42:18;25.50;99.90
24412;DHT22;12544;46.760;15.942;2023-09-18T13:44:43;25.50;99.90
24412;DHT22;12544;46.760;15.942;2023-09-18T13:47:12;25.50;99.90
24412;DHT22;12544;46.760;15.942;2023-09-18T13:49:38;25.30;99.90
24412;DHT22;12544;46.760;15.942;2023-09-18T13:52:04;25.20;99.90
24412;DHT22;12544;46.760;15.942;2023-09-18T13:54:30;25.20;99.90
24412;DHT22;12544;46.760;15.942;2023-09-18T13:56:55;25.20;99.90
24412;DHT22;12544;46.760;15.942;2023-09-18T13:59:21;25.20;99.90
24412;DHT22;12544;46.760;15.942;2023-09-18T14:01:47;25.20;99.90
24412;DHT22;12544;46.760;15.942;2023-09-18T14:04:12;25.20;99.90
24412;DHT22;12544;46.760;15.942;2023-09-18T14:06:38;25.20;99.90
24412;DHT22;12544;46.760;15.942;2023-09-18T14:09:04;25.20;99.90
24412;DHT22;12544;46.760;15.942;2023-09-18T14:11:31;25.10;99.90
24412;DHT22;12544;46.760;15.942;2023-09-18T14:13:57;25.20;99.90
24412;DHT22;12544;46.760;15.942;2023-09-18T14:16:22;25.20;99.90
24412;DHT22;12544;46.760;15.942;2023-09-18T14:18:50;25.30;99.90
24412;DHT22;12544;46.760;15.942;2023-09-18T14:21:15;25.20;99.90
24412;DHT22;12544;46.760;15.942;2023-09-18T14:23:41;25.20;99.90
24412;DHT22;12544;46.760;15.942;2023-09-18T14:26:07;25.20;99.90
24412;DHT22;12544;46.760;15.942;2023-09-18T14:28:32;25.10;99.90
24412;DHT22;12544;46.760;15.942;2023-09-18T14:30:58;25.00;99.90
24412;DHT22;12544;46.760;15.942;2023-09-18T14:33:24;24.90;99.90
24412;DHT22;12544;46.760;15.942;2023-09-18T14:35:49;24.90;99.90
24412;DHT22;12544;46.760;15.942;2023-09-18T14:38:15;24.90;99.90
24412;DHT22;12544;46.760;15.942;2023-09-18T14:40:41;24.90;99.90
24412;DHT22;12544;46.760;15.942;2023-09-18T14:43:08;25.00;99.90
24412;DHT22;12544;46.760;15.942;2023-09-18T14:45:33;25.00;99.90
24412;DHT22;12544;46.760;15.942;2023-09-18T14:48:00;25.20;99.90
24412;DHT22;12544;46.760;15.942;2023-09-18T14:50:26;25.40;99.90
24412;DHT22;12544;46.760;15.942;2023-09-18T14:52:51;25.50;99.90
24412;DHT22;12544;46.760;15.942;2023-09-18T14:55:17;25.60;99.90
24412;DHT22;12544;46.760;15.942;2023-09-18T14:57:43;25.70;99.90
24412;DHT22;12544;46.760;15.942;2023-09-18T15:00:09;25.70;99.90
24412;DHT22;12544;46.760;15.942;2023-09-18T15:02:38;25.60;99.90
24412;DHT22;12544;46.760;15.942;2023-09-18T15:05:05;25.50;99.90
24412;DHT22;12544;46.760;15.942;2023-09-18T15:07:34;25.50;99.90
24412;DHT22;12544;46.760;15.942;2023-09-18T15:10:00;25.50;99.90
24412;DHT22;12544;46.760;15.942;2023-09-18T15:12:25;25.50;99.90
24412;DHT22;12544;46.760;15.942;2023-09-18T15:14:51;25.50;99.90
24412;DHT22;12544;46.760;15.942;2023-09-18T15:17:16;25.60;99.90
24412;DHT22;12544;46.760;15.942;2023-09-18T15:19:42;25.60;99.90
24412;DHT22;12544;46.760;15.942;2023-09-18T15:22:08;25.50;99.90
24412;DHT22;12544;46.760;15.942;2023-09-18T15:24:33;25.60;99.90
24412;DHT22;12544;46.760;15.942;2023-09-18T15:26:59;25.60;99.90
24412;DHT22;12544;46.760;15.942;2023-09-18T15:29:25;25.50;99.90
24412;DHT22;12544;46.760;15.942;2023-09-18T15:31:53;25.40;99.90
24412;DHT22;12544;46.760;15.942;2023-09-18T15:34:19;25.40;99.90
24412;DHT22;12544;46.760;15.942;2023-09-18T15:36:44;25.20;99.90
24412;DHT22;12544;46.760;15.942;2023-09-18T15:39:10;25.10;99.90
24412;DHT22;12544;46.760;15.942;2023-09-18T15:41:35;25.00;99.90
24412;DHT22;12544;46.760;15.942;2023-09-18T15:44:04;25.00;99.90
24412;DHT22;12544;46.760;15.942;2023-09-18T15:46:31;24.90;99.90
24412;DHT22;12544;46.760;15.942;2023-09-18T15:48:56;24.90;99.90
24412;DHT22;12544;46.760;15.942;2023-09-18T15:51:22;24.80;99.90
24412;DHT22;12544;46.760;15.942;2023-09-18T15:53:48;24.80;99.90
24412;DHT22;12544;46.760;15.942;2023-09-18T15:56:13;24.70;99.90